Time;durP1;ratioP1;P1;durP2;ratioP2;P2;SDS_P1;SDS_P2;PMS_P1;PMS_P2;Temp;Humidity;BMP_temperature;BMP_pressure;BME280_temperature;BME280_humidity;BME280_pressure;Samples;Min_cycle;Max_cycle;Signal;HPM_P1;HPM_P2
2020/12/21 09:39:46;;;;;;;19.05;8.68;;;;;;;3.15;78.43;102081.77;1775119;77;22166;-68
2020/12/21 09:42:13;;;;;;;46.42;16.97;;;;;;;3.09;78.22;102081.34;1742345;81;21168;-70
2020/12/21 09:44:41;;;;;;;34.75;12.73;;;;;;;3.10;78.19;102081.72;1737385;80;21200;-71
2020/12/21 09:47:08;;;;;;;30.62;13.08;;;;;;;3.13;78.21;102079.66;1751498;81;21958;-75
2020/12/21 09:49:36;;;;;;;28.85;15.05;;;;;;;3.13;78.06;102078.31;1753010;80;21444;-68
2020/12/21 09:52:04;;;;;;;21.80;11.68;;;;;;;3.13;77.94;102074.73;1737337;80;21402;-70
2020/12/21 09:54:32;;;;;;;30.95;15.45;;;;;;;3.12;77.84;102074.35;1767089;80;21921;-72
2020/12/21 09:56:59;;;;;;;24.37;10.80;;;;;;;3.14;77.89;102077.33;1749878;81;21891;-72
2020/12/21 09:59:27;;;;;;;39.30;18.30;;;;;;;3.17;77.87;102070.83;1750588;81;21207;-66
2020/12/21 10:01:55;;;;;;;26.07;12.13;;;;;;;3.19;77.84;102075.66;1761239;79;21384;-67
2020/12/21 10:04:22;;;;;;;42.30;19.20;;;;;;;3.22;77.79;102064.59;1780635;80;21189;-71
2020/12/21 10:06:50;;;;;;;22.17;10.40;;;;;;;3.24;77.58;102064.00;1770653;79;21185;-65
2020/12/21 10:09:19;;;;;;;15.53;8.35;;;;;;;3.25;77.38;102072.99;1733532;81;21153;-68
2020/12/21 10:11:50;;;;;;;11.90;6.45;;;;;;;3.24;77.32;102074.83;1734785;81;21420;-69
2020/12/21 10:14:17;;;;;;;15.03;6.50;;;;;;;3.29;77.29;102072.70;1697918;81;21432;-68
2020/12/21 10:16:45;;;;;;;12.58;6.05;;;;;;;3.29;77.16;102065.92;1755668;80;21857;-66
2020/12/21 10:19:12;;;;;;;10.55;5.87;;;;;;;3.30;77.22;102067.66;1752276;79;21433;-67
2020/12/21 10:21:40;;;;;;;9.70;5.50;;;;;;;3.32;77.20;102071.13;1771774;79;21157;-70
2020/12/21 10:24:08;;;;;;;11.55;5.72;;;;;;;3.32;77.06;102069.77;1770333;80;21239;-67
2020/12/21 10:26:41;;;;;;;14.70;6.12;;;;;;;3.30;77.07;102070.37;1753421;80;21154;-70
2020/12/21 10:29:09;;;;;;;12.82;6.08;;;;;;;3.30;77.05;102058.66;1770249;80;21133;-67
2020/12/21 10:31:37;;;;;;;12.65;6.78;;;;;;;3.30;77.15;102060.88;1775070;80;21400;-68
2020/12/21 10:34:05;;;;;;;15.23;7.10;;;;;;;3.30;77.16;102065.44;1784886;79;21204;-71
2020/12/21 10:36:33;;;;;;;13.40;7.47;;;;;;;3.28;77.26;102060.13;1763527;79;21388;-68
2020/12/21 10:39:00;;;;;;;18.48;8.90;;;;;;;3.26;77.30;102055.31;1748625;80;21453;-70
2020/12/21 10:41:34;;;;;;;11.53;5.75;;;;;;;3.26;77.42;102061.22;1753224;80;21431;-68
2020/12/21 10:44:01;;;;;;;12.43;6.58;;;;;;;3.29;77.51;102060.50;1765912;81;21956;-66
2020/12/21 10:46:30;;;;;;;14.28;7.05;;;;;;;3.32;77.57;102062.12;1765671;81;21158;-68
2020/12/21 10:48:57;;;;;;;19.12;8.85;;;;;;;3.35;77.64;102056.00;1694517;83;21793;-71
2020/12/21 10:51:27;;;;;;;24.98;11.45;;;;;;;3.35;77.59;102062.77;1743432;82;21224;-68
2020/12/21 10:53:55;;;;;;;102.25;29.85;;;;;;;3.36;77.64;102059.09;1731112;82;21369;-67
2020/12/21 10:56:22;;;;;;;60.63;19.75;;;;;;;3.35;77.55;102058.70;1696521;83;21356;-69
2020/12/21 10:58:50;;;;;;;45.60;18.82;;;;;;;3.37;77.56;102054.05;1707089;83;21845;-71
2020/12/21 11:01:17;;;;;;;45.60;19.40;;;;;;;3.36;77.51;102056.38;1713188;83;21134;-70
2020/12/21 11:03:45;;;;;;;55.40;24.27;;;;;;;3.34;77.49;102062.39;1730215;82;21527;-71
2020/12/21 11:06:23;;;;;;;45.65;19.87;;;;;;;3.32;77.58;102057.58;1695109;83;21806;-71
2020/12/21 11:08:52;;;;;;;46.77;18.05;;;;;;;3.34;77.66;102055.62;1706669;83;21123;-69
2020/12/21 11:11:27;;;;;;;51.05;22.32;;;;;;;3.35;77.70;102058.70;1741218;82;21110;-71
2020/12/21 11:13:55;;;;;;;44.30;19.20;;;;;;;3.41;78.00;102055.55;1743423;81;21103;-69
2020/12/21 11:16:22;;;;;;;36.00;17.87;;;;;;;3.42;77.89;102063.20;1746188;82;21136;-68
2020/12/21 11:18:50;;;;;;;32.03;16.42;;;;;;;3.44;78.09;102060.75;1733583;82;21114;-69
2020/12/21 11:21:18;;;;;;;21.37;9.45;;;;;;;3.46;78.08;102057.94;1735855;82;21619;-69
2020/12/21 11:23:47;;;;;;;16.70;7.53;;;;;;;3.47;78.02;102055.59;1712253;83;21728;-66
2020/12/21 11:26:15;;;;;;;16.87;6.67;;;;;;;3.46;77.91;102053.38;1700754;84;21262;-67
2020/12/21 11:28:42;;;;;;;17.10;7.83;;;;;;;3.49;77.97;102057.22;1748194;82;21135;-67
2020/12/21 11:31:09;;;;;;;15.32;7.80;;;;;;;3.54;77.88;102051.95;1712085;83;21198;-67
2020/12/21 11:33:37;;;;;;;14.07;6.92;;;;;;;3.57;77.70;102058.51;1741304;81;21162;-68
2020/12/21 11:36:07;;;;;;;15.18;7.20;;;;;;;3.57;77.44;102063.93;1717814;83;21175;-66
2020/12/21 11:38:34;;;;;;;18.77;8.75;;;;;;;3.57;77.24;102054.44;1712483;83;21148;-67
2020/12/21 11:41:02;;;;;;;18.15;9.63;;;;;;;3.59;77.14;102053.84;1693165;83;21144;-69
2020/12/21 11:43:30;;;;;;;19.73;10.45;;;;;;;3.60;76.86;102053.73;1668899;85;21233;-70
2020/12/21 11:45:57;;;;;;;21.62;11.40;;;;;;;3.60;76.54;102043.37;1687303;83;21535;-69
2020/12/21 11:48:25;;;;;;;18.23;8.98;;;;;;;3.59;76.34;102047.06;1691131;83;21125;-70
2020/12/21 11:50:52;;;;;;;20.57;11.20;;;;;;;3.54;76.13;102046.53;1704360;83;21206;-71
2020/12/21 11:53:19;;;;;;;26.65;12.60;;;;;;;3.49;76.03;102045.02;1674920;85;21130;-71
2020/12/21 11:55:47;;;;;;;21.70;9.70;;;;;;;3.44;75.97;102044.50;1668709;84;21118;-72
2020/12/21 11:58:14;;;;;;;25.65;11.35;;;;;;;3.40;75.94;102057.89;1715784;82;21563;-73
2020/12/21 12:03:10;;;;;;;31.62;16.02;;;;;;;3.38;75.88;102050.36;1814179;77;28146;-72
2020/12/21 12:05:38;;;;;;;41.70;19.82;;;;;;;3.30;75.77;102048.70;1784656;79;21261;-71
2020/12/21 12:08:06;;;;;;;32.23;15.72;;;;;;;3.29;75.75;102052.38;1783638;80;21168;-72
2020/12/21 12:10:35;;;;;;;34.03;15.85;;;;;;;3.28;75.63;102052.00;1789578;79;21146;-70
2020/12/21 12:13:02;;;;;;;31.15;12.30;;;;;;;3.24;75.41;102058.58;1785029;79;21291;-69
2020/12/21 12:15:30;;;;;;;21.42;10.10;;;;;;;3.21;75.24;102056.58;1784551;79;21294;-72
2020/12/21 12:17:57;;;;;;;27.27;12.45;;;;;;;3.15;75.13;102055.17;1783936;79;21145;-69
2020/12/21 12:20:24;;;;;;;27.93;13.68;;;;;;;3.12;75.18;102058.10;1783492;80;21166;-68
2020/12/21 12:22:52;;;;;;;28.95;13.03;;;;;;;3.12;75.28;102059.45;1786216;79;21272;-71
2020/12/21 12:25:20;;;;;;;30.88;14.13;;;;;;;3.11;75.29;102055.88;1743262;82;21349;-75
2020/12/21 12:27:47;;;;;;;26.35;12.18;;;;;;;3.10;75.33;102057.34;1738183;82;21627;-74
2020/12/21 12:30:14;;;;;;;51.88;20.17;;;;;;;3.09;75.42;102059.19;1733123;82;21442;-73
2020/12/21 12:32:42;;;;;;;68.70;29.27;;;;;;;3.10;75.41;102050.09;1729590;81;21299;-72
2020/12/21 12:35:10;;;;;;;38.70;17.35;;;;;;;3.14;75.47;102047.54;1731633;81;21920;-67
2020/12/21 12:37:37;;;;;;;32.40;14.65;;;;;;;3.17;75.44;102048.67;1741152;81;21134;-70
2020/12/21 12:40:05;;;;;;;33.90;14.50;;;;;;;3.19;75.26;102053.98;1727953;83;21189;-70
2020/12/21 12:42:33;;;;;;;27.70;13.22;;;;;;;3.18;75.19;102054.47;1730641;81;21864;-71
2020/12/21 12:45:01;;;;;;;27.82;11.60;;;;;;;3.19;75.09;102056.69;1732205;81;21185;-72
2020/12/21 12:47:29;;;;;;;26.15;11.78;;;;;;;3.17;74.91;102057.29;1735042;81;21142;-72
2020/12/21 12:49:57;;;;;;;24.18;11.05;;;;;;;3.18;74.79;102049.05;1755013;80;21375;-70
2020/12/21 12:52:24;;;;;;;28.23;11.55;;;;;;;3.17;74.58;102046.45;1746903;82;21332;-70
2020/12/21 12:54:52;;;;;;;31.10;12.88;;;;;;;3.12;74.34;102048.14;1747920;81;21700;-70
2020/12/21 12:57:19;;;;;;;30.95;13.35;;;;;;;3.10;74.38;102046.52;1749893;81;21177;-69
2020/12/21 12:59:46;;;;;;;35.83;14.25;;;;;;;3.08;74.42;102054.75;1723397;81;21400;-69
2020/12/21 13:02:16;;;;;;;29.95;13.22;;;;;;;3.08;74.54;102057.94;1708398;82;21159;-71
2020/12/21 13:04:43;;;;;;;31.40;12.47;;;;;;;3.08;74.55;102051.17;1717810;83;21203;-68
2020/12/21 13:07:11;;;;;;;30.12;12.13;;;;;;;3.08;74.42;102055.23;1765320;80;21357;-73
2020/12/21 13:09:39;;;;;;;28.07;11.78;;;;;;;3.09;74.36;102055.12;1770902;79;21186;-71
2020/12/21 13:12:06;;;;;;;30.75;12.25;;;;;;;3.11;74.30;102057.72;1703492;83;21159;-67
2020/12/21 14:03:01;;;;;;;22.60;7.92;;;;;;;2.72;73.57;102063.61;1776018;77;22410;-69
2020/12/21 14:05:28;;;;;;;29.65;10.38;;;;;;;2.64;73.43;102064.63;1764912;81;21707;-70
2020/12/21 14:07:56;;;;;;;30.27;11.35;;;;;;;2.63;73.40;102064.73;1710235;82;21488;-70
2020/12/21 14:10:23;;;;;;;27.00;9.65;;;;;;;2.63;73.41;102061.55;1720952;82;21997;-70
2020/12/21 14:12:50;;;;;;;26.65;10.53;;;;;;;2.64;73.36;102064.63;1726870;82;21226;-71
2020/12/21 14:15:18;;;;;;;28.57;11.48;;;;;;;2.59;73.33;102057.28;1705631;83;21238;-70
2020/12/21 14:17:47;;;;;;;26.20;9.65;;;;;;;2.56;73.32;102062.91;1699834;83;21210;-69
2020/12/21 14:20:14;;;;;;;24.72;9.88;;;;;;;2.56;73.28;102066.97;1725796;83;22023;-69
2020/12/21 14:22:42;;;;;;;24.05;9.60;;;;;;;2.54;73.28;102062.14;1719273;82;21134;-69
2020/12/21 14:25:10;;;;;;;32.93;11.80;;;;;;;2.53;73.35;102063.11;1711535;83;21358;-68
2020/12/21 14:27:37;;;;;;;25.85;10.20;;;;;;;2.51;73.29;102061.00;1705487;83;21160;-68
2020/12/21 14:30:05;;;;;;;21.87;9.83;;;;;;;2.50;73.44;102057.91;1713381;83;21334;-67
2020/12/21 14:32:33;;;;;;;22.80;9.20;;;;;;;2.50;73.45;102057.91;1713598;83;21380;-64
2020/12/21 14:35:00;;;;;;;21.65;8.95;;;;;;;2.44;73.20;102054.28;1717672;83;21449;-67
2020/12/21 14:37:28;;;;;;;22.90;8.58;;;;;;;2.33;73.30;102055.50;1695380;84;21186;-68
2020/12/21 14:39:55;;;;;;;25.72;9.43;;;;;;;2.26;73.52;102062.29;1694664;83;21296;-69
2020/12/21 14:42:23;;;;;;;29.10;10.40;;;;;;;2.26;73.78;102055.53;1703659;84;21934;-68
2020/12/21 14:44:50;;;;;;;26.20;10.45;;;;;;;2.30;73.87;102062.47;1695333;84;21424;-67
2020/12/21 14:47:17;;;;;;;36.58;15.20;;;;;;;2.32;73.86;102064.09;1714526;82;21166;-70
2020/12/21 14:49:44;;;;;;;37.83;14.35;;;;;;;2.30;73.88;102072.80;1712897;83;21885;-66
2020/12/21 14:52:12;;;;;;;35.60;13.35;;;;;;;2.31;73.83;102069.12;1718464;82;21388;-71
2020/12/21 14:54:39;;;;;;;29.18;11.75;;;;;;;2.31;73.75;102068.25;1690588;84;21433;-71
2020/12/21 14:57:06;;;;;;;32.38;11.83;;;;;;;2.30;73.57;102063.81;1716512;82;21258;-68
2020/12/21 14:59:34;;;;;;;22.37;10.30;;;;;;;2.26;73.57;102061.80;1700803;83;21821;-70
2020/12/21 15:02:03;;;;;;;20.77;8.55;;;;;;;2.27;73.62;102067.59;1686684;83;21166;-71
2020/12/21 15:04:30;;;;;;;24.32;9.20;;;;;;;2.30;73.71;102067.39;1699901;83;21707;-68
2020/12/21 15:07:03;;;;;;;21.12;9.35;;;;;;;2.31;73.64;102064.20;1720125;82;21901;-68
2020/12/21 15:09:32;;;;;;;22.52;9.63;;;;;;;2.32;73.60;102072.69;1693027;82;21397;-67
2020/12/21 15:12:00;;;;;;;22.22;9.15;;;;;;;2.29;73.53;102066.14;1710465;82;21430;-66
2020/12/21 15:14:27;;;;;;;25.95;10.28;;;;;;;2.27;73.42;102070.30;1717547;83;21748;-66
2020/12/21 15:16:56;;;;;;;21.00;9.48;;;;;;;2.25;73.25;102071.38;1712235;82;21408;-72
2020/12/21 15:19:23;;;;;;;21.35;9.90;;;;;;;2.20;72.96;102069.84;1720604;83;21432;-68
2020/12/21 15:21:52;;;;;;;19.98;8.25;;;;;;;2.18;72.81;102077.19;1722923;82;21924;-66
2020/12/21 15:24:20;;;;;;;16.97;7.25;;;;;;;2.12;72.66;102070.84;1732407;82;21910;-68
2020/12/21 15:26:47;;;;;;;13.85;6.85;;;;;;;2.05;72.58;102074.92;1718532;83;21418;-71
2020/12/21 15:29:15;;;;;;;15.13;6.58;;;;;;;2.04;72.66;102070.97;1723081;82;21365;-67
2020/12/21 15:31:42;;;;;;;13.83;6.37;;;;;;;2.04;72.61;102065.08;1715122;82;21205;-65
2020/12/21 15:34:10;;;;;;;15.35;6.45;;;;;;;2.02;72.56;102068.86;1717116;82;21213;-66
2020/12/21 15:36:38;;;;;;;15.63;7.30;;;;;;;1.99;72.62;102064.52;1707702;82;21174;-67
2020/12/21 15:39:06;;;;;;;16.87;7.53;;;;;;;1.97;72.61;102065.11;1711677;82;21842;-69
2020/12/21 15:41:39;;;;;;;17.77;7.33;;;;;;;1.96;72.51;102066.08;1739061;82;22095;-69
2020/12/21 15:44:07;;;;;;;19.32;8.43;;;;;;;1.94;72.47;102067.11;1724275;82;21436;-67
2020/12/21 15:46:35;;;;;;;15.93;7.40;;;;;;;1.93;72.29;102073.00;1729457;82;21889;-64
2020/12/21 15:49:03;;;;;;;14.45;6.42;;;;;;;1.90;72.26;102077.25;1738337;82;21230;-65
2020/12/21 15:51:30;;;;;;;16.35;6.95;;;;;;;1.88;72.21;102073.79;1726555;82;21467;-67
2020/12/21 15:53:58;;;;;;;11.33;5.55;;;;;;;1.87;72.19;102074.27;1710357;83;21146;-66
2020/12/21 15:56:25;;;;;;;12.53;5.28;;;;;;;1.86;72.08;102071.67;1728515;81;21141;-69
2020/12/21 15:58:53;;;;;;;11.12;5.40;;;;;;;1.80;71.95;102070.23;1738291;81;21202;-68
2020/12/21 16:01:20;;;;;;;15.48;5.90;;;;;;;1.74;71.82;102065.23;1701434;83;21945;-68
2020/12/21 16:03:48;;;;;;;16.57;6.67;;;;;;;1.71;71.98;102065.91;1714716;82;21167;-67
2020/12/21 16:06:15;;;;;;;12.63;6.30;;;;;;;1.72;72.00;102064.95;1718746;83;21404;-67
2020/12/21 16:08:43;;;;;;;10.93;5.45;;;;;;;1.73;71.94;102066.68;1718115;81;21407;-67
2020/12/21 16:11:10;;;;;;;12.95;6.67;;;;;;;1.70;71.84;102061.48;1724682;81;21439;-70
2020/12/21 16:13:37;;;;;;;12.88;6.30;;;;;;;1.69;71.72;102066.02;1716214;83;21185;-66
2020/12/21 16:16:05;;;;;;;13.28;6.58;;;;;;;1.67;71.71;102060.33;1718820;82;21360;-66
2020/12/21 16:18:33;;;;;;;14.10;6.75;;;;;;;1.66;71.54;102064.00;1697482;84;21310;-66
2020/12/21 16:21:00;;;;;;;13.43;6.97;;;;;;;1.66;71.41;102055.89;1696823;84;21444;-67
2020/12/21 16:23:28;;;;;;;11.70;5.85;;;;;;;1.65;71.28;102057.72;1697077;84;21550;-69
2020/12/21 16:25:55;;;;;;;11.65;6.45;;;;;;;1.61;71.13;102053.97;1696733;84;21220;-66
2020/12/21 16:28:23;;;;;;;15.15;6.83;;;;;;;1.57;70.95;102058.70;1714515;83;21786;-68
2020/12/21 16:30:50;;;;;;;13.45;7.00;;;;;;;1.50;70.88;102056.02;1725587;83;21480;-66
2020/12/21 16:33:18;;;;;;;12.58;6.15;;;;;;;1.45;70.88;102060.36;1725560;83;21330;-67
2020/12/21 16:35:50;;;;;;;13.18;6.65;;;;;;;1.43;70.95;102054.67;1721082;83;21202;-69
2020/12/21 16:38:14;;;;;;;13.55;5.80;;;;;;;1.41;70.79;102065.58;1712988;81;21201;-68
2020/12/21 16:40:42;;;;;;;11.97;6.05;;;;;;;1.32;70.55;102059.41;1708737;83;21870;-65
2020/12/21 16:43:12;;;;;;;8.78;4.85;;;;;;;1.26;70.62;102061.12;1722622;83;21153;-69
2020/12/21 16:45:39;;;;;;;9.85;5.17;;;;;;;1.22;70.69;102064.98;1713434;83;21433;-66
2020/12/21 16:48:06;;;;;;;10.18;4.62;;;;;;;1.20;70.71;102069.12;1665943;85;21193;-65
2020/12/21 16:50:34;;;;;;;11.45;5.00;;;;;;;1.15;70.62;102069.03;1668504;85;21385;-65
2020/12/21 16:53:01;;;;;;;12.43;5.10;;;;;;;1.10;70.58;102068.45;1668566;86;21461;-64
2020/12/21 16:55:29;;;;;;;22.85;7.42;;;;;;;1.10;70.63;102076.55;1676347;84;21271;-64
2020/12/21 16:57:57;;;;;;;11.45;5.17;;;;;;;1.10;70.69;102073.84;1684160;84;21183;-65
2020/12/21 17:00:24;;;;;;;13.03;5.75;;;;;;;1.11;70.76;102078.28;1681868;84;21167;-67
2020/12/21 17:02:53;;;;;;;10.53;5.17;;;;;;;1.12;70.86;102075.97;1677727;83;21183;-65
2020/12/21 17:05:20;;;;;;;10.30;5.33;;;;;;;1.12;70.73;102065.17;1670490;85;21147;-66
2020/12/21 17:07:48;;;;;;;8.83;4.08;;;;;;;1.11;70.71;102071.53;1675515;85;21176;-69
2020/12/21 17:10:15;;;;;;;9.80;5.20;;;;;;;1.07;70.71;102074.04;1673464;85;21395;-71
2020/12/21 17:12:43;;;;;;;13.58;4.75;;;;;;;1.05;70.84;102074.62;1676950;85;21433;-67
2020/12/21 17:15:11;;;;;;;14.50;6.40;;;;;;;1.06;70.93;102076.35;1684605;85;21441;-66
2020/12/21 17:17:39;;;;;;;17.92;6.62;;;;;;;1.07;70.85;102080.31;1684613;84;21171;-64
2020/12/21 17:20:09;;;;;;;10.58;5.10;;;;;;;1.06;70.74;102090.72;1666764;85;21891;-71
2020/12/21 17:22:36;;;;;;;10.93;4.67;;;;;;;1.03;70.61;102080.59;1660585;85;21899;-67
2020/12/21 17:25:05;;;;;;;10.53;5.03;;;;;;;1.06;70.76;102087.15;1684455;84;21151;-66
2020/12/21 17:27:33;;;;;;;11.73;4.80;;;;;;;1.09;70.69;102082.43;1669011;83;21224;-66
2020/12/21 17:30:03;;;;;;;10.43;5.42;;;;;;;1.09;70.56;102082.91;1664600;85;21175;-70
2020/12/21 17:32:31;;;;;;;14.85;6.30;;;;;;;1.09;70.47;102086.48;1680891;84;21182;-69
2020/12/21 17:34:58;;;;;;;13.58;5.60;;;;;;;1.12;70.93;102080.02;1682413;85;21461;-68
2020/12/21 17:37:26;;;;;;;9.53;4.87;;;;;;;1.21;70.88;102076.74;1682418;85;21178;-68
2020/12/21 17:39:53;;;;;;;9.08;5.22;;;;;;;1.31;70.57;102085.16;1668117;84;21446;-67
2020/12/21 17:42:21;;;;;;;10.98;5.45;;;;;;;1.36;70.13;102087.96;1670009;85;21183;-68
2020/12/21 17:44:48;;;;;;;12.93;6.25;;;;;;;1.35;69.65;102085.36;1679394;85;21882;-68
2020/12/21 17:47:16;;;;;;;14.25;6.55;;;;;;;1.31;69.51;102087.38;1657993;85;21200;-68
2020/12/21 17:49:44;;;;;;;14.80;7.92;;;;;;;1.31;69.26;102087.87;1634656;87;21959;-66
2020/12/21 17:52:11;;;;;;;13.10;5.58;;;;;;;1.27;69.20;102092.56;1686175;83;21325;-65
2020/12/21 17:54:38;;;;;;;12.18;6.65;;;;;;;1.22;68.83;102097.38;1665324;85;21190;-69
2020/12/21 17:57:08;;;;;;;11.93;6.12;;;;;;;1.12;68.74;102090.81;1634870;86;21882;-69
2020/12/21 17:59:37;;;;;;;10.93;5.78;;;;;;;1.07;68.93;102099.20;1684712;85;21410;-69
2020/12/21 18:02:06;;;;;;;9.25;5.10;;;;;;;1.03;68.83;102100.84;1668228;85;21230;-66
2020/12/21 18:04:35;;;;;;;8.38;5.08;;;;;;;0.95;68.83;102102.18;1676834;85;21913;-69
2020/12/21 18:07:03;;;;;;;9.15;5.00;;;;;;;0.89;68.68;102107.08;1668884;84;21218;-69
2020/12/21 18:09:31;;;;;;;8.40;5.12;;;;;;;0.78;68.84;102106.39;1694385;83;21198;-67
2020/12/21 18:11:58;;;;;;;9.25;4.95;;;;;;;0.77;69.05;102099.25;1674184;84;21484;-67
2020/12/21 18:14:26;;;;;;;9.38;5.30;;;;;;;0.75;68.86;102103.88;1668793;84;21436;-69
2020/12/21 18:16:55;;;;;;;12.45;5.62;;;;;;;0.70;68.71;102101.06;1668630;86;21185;-69
2020/12/21 18:19:23;;;;;;;10.70;5.80;;;;;;;0.63;68.63;102098.70;1677827;84;21315;-68
2020/12/21 18:21:50;;;;;;;12.18;5.80;;;;;;;0.56;68.88;102103.21;1679232;84;21577;-66
2020/12/21 18:24:18;;;;;;;9.28;5.70;;;;;;;0.51;69.01;102103.97;1670589;84;21517;-68
2020/12/21 18:26:45;;;;;;;9.45;5.28;;;;;;;0.49;69.15;102111.28;1667199;86;21539;-68
2020/12/21 18:29:14;;;;;;;10.90;5.97;;;;;;;0.49;69.21;102108.58;1704437;83;21359;-67
2020/12/21 18:31:43;;;;;;;13.00;5.92;;;;;;;0.47;69.29;102110.50;1696598;84;21213;-67
2020/12/21 18:34:11;;;;;;;9.68;5.83;;;;;;;0.40;69.30;102095.65;1694783;84;21836;-67
2020/12/21 18:36:39;;;;;;;11.75;5.72;;;;;;;0.33;69.45;102103.23;1683026;84;21285;-68
2020/12/21 18:39:06;;;;;;;11.88;6.90;;;;;;;0.29;69.67;102098.50;1672655;84;21180;-67
2020/12/21 18:41:33;;;;;;;11.08;6.15;;;;;;;0.29;69.86;102105.72;1681040;84;21873;-67
2020/12/21 18:44:01;;;;;;;17.30;8.63;;;;;;;0.26;69.89;102100.50;1643392;86;21935;-67
2020/12/21 18:46:38;;;;;;;12.58;6.20;;;;;;;0.24;69.91;102107.33;1674877;84;21201;-67
2020/12/21 18:49:06;;;;;;;11.28;6.10;;;;;;;0.18;69.94;102109.03;1659052;85;21480;-67
2020/12/21 18:51:33;;;;;;;12.53;6.65;;;;;;;0.16;70.03;102116.34;1680782;85;21256;-67
2020/12/21 18:54:00;;;;;;;13.50;6.37;;;;;;;0.15;70.21;102107.87;1680633;84;21372;-68
2020/12/21 18:56:28;;;;;;;9.30;4.67;;;;;;;0.18;70.28;102110.39;1680732;85;21217;-69
2020/12/21 18:58:55;;;;;;;12.28;6.65;;;;;;;0.19;70.13;102104.03;1679921;83;21491;-67
2020/12/21 19:01:24;;;;;;;14.20;6.25;;;;;;;0.17;69.89;102111.82;1670152;84;21217;-67
2020/12/21 19:03:51;;;;;;;13.18;6.42;;;;;;;0.15;70.00;102110.56;1686770;84;21194;-67
2020/12/21 19:06:18;;;;;;;16.37;7.50;;;;;;;0.18;69.89;102100.08;1672559;85;21300;-67
2020/12/21 19:08:46;;;;;;;16.37;7.72;;;;;;;0.19;69.81;102101.34;1691789;84;21427;-66
2020/12/21 19:11:13;;;;;;;12.30;6.25;;;;;;;0.21;69.67;102098.08;1691651;84;21248;-68
2020/12/21 19:13:41;;;;;;;11.40;5.90;;;;;;;0.23;69.60;102100.69;1691782;84;21342;-66
2020/12/21 19:16:08;;;;;;;13.40;6.60;;;;;;;0.23;69.54;102094.81;1691851;84;21646;-67
2020/12/21 19:18:41;;;;;;;15.25;6.92;;;;;;;0.22;69.39;102094.42;1691925;84;21402;-69
2020/12/21 19:21:08;;;;;;;16.32;6.72;;;;;;;0.18;69.34;102090.17;1660689;86;22045;-67
2020/12/21 19:23:35;;;;;;;18.27;7.90;;;;;;;0.15;69.32;102092.17;1691739;84;21973;-69
2020/12/21 19:26:03;;;;;;;15.50;6.55;;;;;;;0.11;69.42;102098.70;1691764;84;21157;-69
2020/12/21 19:28:30;;;;;;;15.45;8.00;;;;;;;0.08;69.33;102097.05;1691729;84;21954;-68
2020/12/21 19:30:58;;;;;;;12.45;6.87;;;;;;;0.04;69.33;102102.23;1660636;86;21253;-69
2020/12/21 19:33:25;;;;;;;15.10;8.30;;;;;;;-0.01;69.52;102102.46;1691733;84;21485;-70
2020/12/21 19:35:52;;;;;;;15.48;7.45;;;;;;;-0.02;69.58;102101.20;1691835;84;21586;-69
2020/12/21 19:38:20;;;;;;;14.65;6.75;;;;;;;0.00;69.69;102103.36;1660840;86;21214;-68
2020/12/21 19:40:47;;;;;;;14.38;7.25;;;;;;;0.02;69.54;102104.63;1691781;84;21915;-68
2020/12/21 19:43:15;;;;;;;13.00;6.55;;;;;;;-0.01;69.58;102109.20;1691871;84;21421;-69
2020/12/21 19:45:43;;;;;;;12.28;6.97;;;;;;;-0.02;69.64;102102.55;1692006;84;21337;-68
2020/12/21 19:48:10;;;;;;;14.45;7.50;;;;;;;-0.01;69.72;102101.59;1660834;86;21368;-69
2020/12/21 19:50:38;;;;;;;16.90;8.03;;;;;;;-0.04;69.49;102104.47;1660858;86;21982;-68
2020/12/21 19:53:06;;;;;;;14.00;7.53;;;;;;;-0.06;69.54;102100.98;1691752;84;21467;-68
2020/12/21 19:55:34;;;;;;;15.83;6.75;;;;;;;-0.05;69.50;102106.77;1692135;84;21830;-68
2020/12/21 19:58:01;;;;;;;11.48;7.03;;;;;;;-0.07;69.51;102101.47;1660910;86;21565;-70
2020/12/21 20:00:28;;;;;;;12.60;6.65;;;;;;;-0.06;69.44;102101.86;1691831;84;21234;-70
2020/12/21 20:02:56;;;;;;;15.32;7.55;;;;;;;-0.06;69.37;102106.38;1660718;86;21186;-68
2020/12/21 20:05:24;;;;;;;10.63;5.55;;;;;;;-0.03;69.30;102103.03;1691847;84;21169;-69
2020/12/21 20:07:51;;;;;;;10.05;5.80;;;;;;;-0.01;69.11;102102.94;1691924;84;21277;-68
2020/12/21 20:10:19;;;;;;;10.63;5.90;;;;;;;-0.08;68.87;102101.08;1691843;84;21880;-68
2020/12/21 20:12:51;;;;;;;13.03;5.70;;;;;;;-0.17;68.73;102096.21;1691956;84;21197;-67
2020/12/21 20:15:20;;;;;;;9.63;5.87;;;;;;;-0.21;68.91;102100.52;1658274;86;21202;-68
2020/12/21 20:17:48;;;;;;;9.23;5.22;;;;;;;-0.25;68.86;102103.86;1691881;84;21931;-68
2020/12/21 20:20:15;;;;;;;9.38;5.40;;;;;;;-0.30;68.85;102102.38;1691840;84;21181;-68
2020/12/21 20:22:43;;;;;;;10.45;5.12;;;;;;;-0.33;68.99;102094.86;1660793;86;21182;-69
2020/12/21 20:25:10;;;;;;;10.23;6.03;;;;;;;-0.30;69.17;102095.17;1691906;84;21922;-67
2020/12/21 20:27:38;;;;;;;11.75;6.28;;;;;;;-0.28;69.16;102103.16;1691873;84;21182;-67
2020/12/21 20:30:06;;;;;;;11.22;5.58;;;;;;;-0.30;69.17;102095.65;1691839;84;21182;-67
2020/12/21 20:32:34;;;;;;;13.15;6.55;;;;;;;-0.32;69.16;102096.60;1691819;84;21348;-69
2020/12/21 20:35:03;;;;;;;10.18;5.78;;;;;;;-0.32;69.18;102097.08;1660084;86;21186;-67
2020/12/21 20:37:31;;;;;;;10.55;5.67;;;;;;;-0.33;69.27;102096.21;1660631;86;21442;-68
2020/12/21 20:39:59;;;;;;;10.15;5.97;;;;;;;-0.30;69.38;102106.42;1691755;84;21473;-68
2020/12/21 20:42:26;;;;;;;12.10;6.10;;;;;;;-0.28;69.39;102099.13;1691778;84;21464;-67
2020/12/21 20:44:54;;;;;;;11.93;6.10;;;;;;;-0.25;69.34;102098.95;1662322;84;21915;-67
2020/12/21 20:47:22;;;;;;;10.20;5.70;;;;;;;-0.23;69.10;102097.91;1660595;86;21194;-68
2020/12/21 20:49:49;;;;;;;10.25;6.67;;;;;;;-0.23;69.15;102101.08;1691610;84;21773;-67
2020/12/21 20:52:16;;;;;;;12.00;6.67;;;;;;;-0.25;69.03;102094.91;1692551;83;21201;-68
2020/12/21 20:54:44;;;;;;;12.88;6.05;;;;;;;-0.28;69.06;102096.43;1710920;83;21760;-70
2020/12/21 20:57:11;;;;;;;11.70;5.47;;;;;;;-0.34;69.18;102094.47;1710958;83;21873;-69
2020/12/21 20:59:39;;;;;;;9.88;5.35;;;;;;;-0.33;69.29;102096.69;1711216;83;21546;-71
2020/12/21 21:02:06;;;;;;;11.30;6.30;;;;;;;-0.37;69.24;102091.08;1711233;83;21554;-72
2020/12/21 21:04:33;;;;;;;11.55;6.53;;;;;;;-0.41;69.25;102091.73;1711186;83;21160;-68
2020/12/21 21:07:01;;;;;;;11.83;5.83;;;;;;;-0.43;69.16;102086.04;1711384;83;21294;-69
2020/12/21 21:09:30;;;;;;;11.28;5.80;;;;;;;-0.43;69.20;102084.22;1708832;83;21219;-70
2020/12/21 21:11:58;;;;;;;11.40;5.17;;;;;;;-0.45;69.20;102087.47;1711334;83;21408;-70
2020/12/21 21:14:25;;;;;;;11.88;6.40;;;;;;;-0.45;69.32;102090.64;1711422;83;21387;-67
2020/12/21 21:16:53;;;;;;;11.93;6.12;;;;;;;-0.45;69.22;102089.30;1711272;83;21337;-70
2020/12/21 21:19:23;;;;;;;8.88;6.05;;;;;;;-0.45;69.16;102095.55;1711520;83;21243;-71
2020/12/21 21:21:54;;;;;;;10.30;5.50;;;;;;;-0.45;69.15;102088.81;1711305;83;21284;-72
2020/12/21 21:24:24;;;;;;;10.23;5.83;;;;;;;-0.40;69.17;102084.05;1711452;83;21446;-71
2020/12/21 21:26:55;;;;;;;17.42;6.55;;;;;;;-0.35;69.06;102085.13;1711257;83;21158;-68
2020/12/21 21:29:26;;;;;;;11.55;6.17;;;;;;;-0.34;68.93;102081.00;1711567;83;21179;-69
2020/12/21 21:31:54;;;;;;;11.70;5.90;;;;;;;-0.35;68.91;102073.88;1711349;83;21200;-70
2020/12/21 21:34:23;;;;;;;11.05;4.97;;;;;;;-0.35;68.76;102067.15;1711479;83;21498;-69
2020/12/21 21:36:51;;;;;;;10.40;5.75;;;;;;;-0.36;68.74;102065.41;1711273;83;21215;-69
2020/12/21 21:39:21;;;;;;;10.93;6.12;;;;;;;-0.37;68.72;102064.16;1711287;83;21375;-67
2020/12/21 21:42:01;;;;;;;11.95;6.37;;;;;;;-0.36;68.84;102065.89;1711292;83;21569;-68
2020/12/21 21:44:25;;;;;;;12.53;6.95;;;;;;;-0.36;68.77;102071.28;1710725;83;21318;-66
2020/12/21 21:46:54;;;;;;;15.10;6.80;;;;;;;-0.38;68.63;102064.63;1711438;83;21207;-67
2020/12/21 21:49:21;;;;;;;16.45;8.33;;;;;;;-0.41;68.60;102064.80;1711284;83;21880;-68
2020/12/21 21:51:49;;;;;;;15.40;6.70;;;;;;;-0.40;68.65;102062.98;1711255;83;21302;-68
2020/12/21 21:54:18;;;;;;;15.30;7.83;;;;;;;-0.38;68.62;102059.24;1711307;83;21143;-66